sensor_id;sensor_type;location;lat;lon;timestamp;temperature;humidity
12708;DHT22;6418;50.824;4.718;2023-08-20T00:01:22;20.50;99.90
12708;DHT22;6418;50.824;4.718;2023-08-20T00:03:53;20.60;99.90
12708;DHT22;6418;50.824;4.718;2023-08-20T00:06:21;20.40;99.90
12708;DHT22;6418;50.824;4.718;2023-08-20T00:08:49;20.30;99.90
12708;DHT22;6418;50.824;4.718;2023-08-20T00:11:16;20.30;99.90
12708;DHT22;6418;50.824;4.718;2023-08-20T00:13:43;20.30;99.90
12708;DHT22;6418;50.824;4.718;2023-08-20T00:16:11;20.20;99.90
12708;DHT22;6418;50.824;4.718;2023-08-20T00:18:38;20.20;99.90
12708;DHT22;6418;50.824;4.718;2023-08-20T00:21:08;20.20;99.90
12708;DHT22;6418;50.824;4.718;2023-08-20T00:23:35;20.10;99.90
12708;DHT22;6418;50.824;4.718;2023-08-20T00:26:03;20.00;99.90
12708;DHT22;6418;50.824;4.718;2023-08-20T00:28:31;20.00;99.90
12708;DHT22;6418;50.824;4.718;2023-08-20T00:30:59;20.10;99.90
12708;DHT22;6418;50.824;4.718;2023-08-20T00:33:26;20.10;99.90
12708;DHT22;6418;50.824;4.718;2023-08-20T00:35:53;20.10;99.90
12708;DHT22;6418;50.824;4.718;2023-08-20T00:38:21;20.10;99.90
12708;DHT22;6418;50.824;4.718;2023-08-20T00:40:48;20.00;99.90
12708;DHT22;6418;50.824;4.718;2023-08-20T00:43:15;20.00;99.90
12708;DHT22;6418;50.824;4.718;2023-08-20T00:45:42;20.00;99.90
12708;DHT22;6418;50.824;4.718;2023-08-20T00:48:10;19.90;99.90
12708;DHT22;6418;50.824;4.718;2023-08-20T00:50:38;19.90;99.90
12708;DHT22;6418;50.824;4.718;2023-08-20T00:53:07;19.90;99.90
12708;DHT22;6418;50.824;4.718;2023-08-20T00:55:36;19.80;99.90
12708;DHT22;6418;50.824;4.718;2023-08-20T00:58:04;19.80;99.90
12708;DHT22;6418;50.824;4.718;2023-08-20T01:00:31;19.80;99.90
12708;DHT22;6418;50.824;4.718;2023-08-20T01:02:58;19.80;99.90
12708;DHT22;6418;50.824;4.718;2023-08-20T01:05:25;19.80;99.90
12708;DHT22;6418;50.824;4.718;2023-08-20T01:08:12;19.80;99.90
12708;DHT22;6418;50.824;4.718;2023-08-20T01:10:49;19.80;99.90
12708;DHT22;6418;50.824;4.718;2023-08-20T01:13:19;19.80;99.90
12708;DHT22;6418;50.824;4.718;2023-08-20T01:15:46;19.70;99.90
12708;DHT22;6418;50.824;4.718;2023-08-20T01:18:13;19.60;99.90
12708;DHT22;6418;50.824;4.718;2023-08-20T01:20:50;19.70;99.90
12708;DHT22;6418;50.824;4.718;2023-08-20T01:23:45;19.60;99.90
12708;DHT22;6418;50.824;4.718;2023-08-20T01:26:47;19.60;99.90
12708;DHT22;6418;50.824;4.718;2023-08-20T01:29:17;19.60;99.90
12708;DHT22;6418;50.824;4.718;2023-08-20T01:31:45;19.60;99.90
12708;DHT22;6418;50.824;4.718;2023-08-20T01:34:12;19.60;99.90
12708;DHT22;6418;50.824;4.718;2023-08-20T01:36:39;19.60;99.90
12708;DHT22;6418;50.824;4.718;2023-08-20T01:39:06;19.60;99.90
12708;DHT22;6418;50.824;4.718;2023-08-20T01:41:33;19.60;99.90
12708;DHT22;6418;50.824;4.718;2023-08-20T01:44:00;19.60;99.90
12708;DHT22;6418;50.824;4.718;2023-08-20T01:46:29;19.60;99.90
12708;DHT22;6418;50.824;4.718;2023-08-20T01:48:56;19.60;99.90
12708;DHT22;6418;50.824;4.718;2023-08-20T01:51:23;19.60;99.90
12708;DHT22;6418;50.824;4.718;2023-08-20T01:53:50;19.60;99.90
12708;DHT22;6418;50.824;4.718;2023-08-20T01:56:17;19.70;99.90
12708;DHT22;6418;50.824;4.718;2023-08-20T01:58:44;19.60;99.90
12708;DHT22;6418;50.824;4.718;2023-08-20T02:01:11;19.60;99.90
12708;DHT22;6418;50.824;4.718;2023-08-20T02:03:39;19.60;99.90
12708;DHT22;6418;50.824;4.718;2023-08-20T02:06:06;19.60;99.90
12708;DHT22;6418;50.824;4.718;2023-08-20T02:08:33;19.70;99.90
12708;DHT22;6418;50.824;4.718;2023-08-20T02:11:00;19.70;99.90
12708;DHT22;6418;50.824;4.718;2023-08-20T02:13:28;19.70;99.90
12708;DHT22;6418;50.824;4.718;2023-08-20T02:15:59;19.70;99.90
12708;DHT22;6418;50.824;4.718;2023-08-20T02:18:26;19.80;99.90
12708;DHT22;6418;50.824;4.718;2023-08-20T02:20:54;19.80;99.90
12708;DHT22;6418;50.824;4.718;2023-08-20T02:23:21;19.80;99.90
12708;DHT22;6418;50.824;4.718;2023-08-20T02:25:48;19.80;99.90
12708;DHT22;6418;50.824;4.718;2023-08-20T02:28:15;19.80;99.90
12708;DHT22;6418;50.824;4.718;2023-08-20T02:30:44;19.80;99.90
12708;DHT22;6418;50.824;4.718;2023-08-20T02:33:11;19.70;99.90
12708;DHT22;6418;50.824;4.718;2023-08-20T02:35:38;19.70;99.90
12708;DHT22;6418;50.824;4.718;2023-08-20T02:38:07;19.70;99.90
12708;DHT22;6418;50.824;4.718;2023-08-20T02:40:40;19.70;99.90
12708;DHT22;6418;50.824;4.718;2023-08-20T02:43:07;19.70;99.90
12708;DHT22;6418;50.824;4.718;2023-08-20T02:45:40;19.70;99.90
12708;DHT22;6418;50.824;4.718;2023-08-20T02:48:07;19.60;99.90
12708;DHT22;6418;50.824;4.718;2023-08-20T02:50:34;19.50;99.90
12708;DHT22;6418;50.824;4.718;2023-08-20T02:53:01;19.50;99.90
12708;DHT22;6418;50.824;4.718;2023-08-20T02:55:30;19.50;99.90
12708;DHT22;6418;50.824;4.718;2023-08-20T02:57:58;19.40;99.90
12708;DHT22;6418;50.824;4.718;2023-08-20T03:00:25;19.30;99.90
12708;DHT22;6418;50.824;4.718;2023-08-20T03:02:52;19.20;99.90
12708;DHT22;6418;50.824;4.718;2023-08-20T03:05:19;19.20;99.90
12708;DHT22;6418;50.824;4.718;2023-08-20T03:07:46;19.20;99.90
12708;DHT22;6418;50.824;4.718;2023-08-20T03:10:13;19.20;99.90
12708;DHT22;6418;50.824;4.718;2023-08-20T03:12:41;19.10;99.90
12708;DHT22;6418;50.824;4.718;2023-08-20T03:15:08;19.00;99.90
12708;DHT22;6418;50.824;4.718;2023-08-20T03:17:35;18.90;99.90
12708;DHT22;6418;50.824;4.718;2023-08-20T03:20:02;18.90;99.90
12708;DHT22;6418;50.824;4.718;2023-08-20T03:22:32;18.90;99.90
12708;DHT22;6418;50.824;4.718;2023-08-20T03:24:59;18.90;99.90
12708;DHT22;6418;50.824;4.718;2023-08-20T03:27:26;18.80;99.90
12708;DHT22;6418;50.824;4.718;2023-08-20T03:29:54;18.80;99.90
12708;DHT22;6418;50.824;4.718;2023-08-20T03:32:22;18.80;99.90
12708;DHT22;6418;50.824;4.718;2023-08-20T03:34:49;18.70;99.90
12708;DHT22;6418;50.824;4.718;2023-08-20T03:37:16;18.70;99.90
12708;DHT22;6418;50.824;4.718;2023-08-20T03:39:43;18.60;99.90
12708;DHT22;6418;50.824;4.718;2023-08-20T03:42:10;18.60;99.90
12708;DHT22;6418;50.824;4.718;2023-08-20T03:44:37;18.60;99.90
12708;DHT22;6418;50.824;4.718;2023-08-20T03:47:05;18.50;99.90
12708;DHT22;6418;50.824;4.718;2023-08-20T03:49:32;18.40;99.90
12708;DHT22;6418;50.824;4.718;2023-08-20T03:51:59;18.40;99.90
12708;DHT22;6418;50.824;4.718;2023-08-20T03:54:27;18.30;99.90
12708;DHT22;6418;50.824;4.718;2023-08-20T03:56:55;18.30;99.90
12708;DHT22;6418;50.824;4.718;2023-08-20T03:59:22;18.20;99.90
12708;DHT22;6418;50.824;4.718;2023-08-20T04:01:49;18.20;99.90
12708;DHT22;6418;50.824;4.718;2023-08-20T04:04:17;18.10;99.90
12708;DHT22;6418;50.824;4.718;2023-08-20T04:06:44;18.10;99.90
12708;DHT22;6418;50.824;4.718;2023-08-20T04:09:11;18.10;99.90
12708;DHT22;6418;50.824;4.718;2023-08-20T04:11:38;18.00;99.90
12708;DHT22;6418;50.824;4.718;2023-08-20T04:14:05;18.00;99.90
12708;DHT22;6418;50.824;4.718;2023-08-20T04:16:32;17.90;99.90
12708;DHT22;6418;50.824;4.718;2023-08-20T04:18:59;17.90;99.90
12708;DHT22;6418;50.824;4.718;2023-08-20T04:21:27;17.90;99.90
12708;DHT22;6418;50.824;4.718;2023-08-20T04:23:54;17.80;99.90
12708;DHT22;6418;50.824;4.718;2023-08-20T04:26:21;17.80;99.90
12708;DHT22;6418;50.824;4.718;2023-08-20T04:28:48;17.80;99.90
12708;DHT22;6418;50.824;4.718;2023-08-20T04:31:15;17.70;99.90
12708;DHT22;6418;50.824;4.718;2023-08-20T04:33:42;17.70;99.90
12708;DHT22;6418;50.824;4.718;2023-08-20T04:36:09;17.70;99.90
12708;DHT22;6418;50.824;4.718;2023-08-20T04:38:37;17.60;99.90
12708;DHT22;6418;50.824;4.718;2023-08-20T04:41:04;17.50;99.90
12708;DHT22;6418;50.824;4.718;2023-08-20T04:43:31;17.50;99.90
12708;DHT22;6418;50.824;4.718;2023-08-20T04:45:58;17.50;99.90
12708;DHT22;6418;50.824;4.718;2023-08-20T04:48:25;17.40;99.90
12708;DHT22;6418;50.824;4.718;2023-08-20T04:50:52;17.40;99.90
12708;DHT22;6418;50.824;4.718;2023-08-20T04:53:19;17.30;99.90
12708;DHT22;6418;50.824;4.718;2023-08-20T04:55:47;17.30;99.90
12708;DHT22;6418;50.824;4.718;2023-08-20T04:58:14;17.20;99.90
12708;DHT22;6418;50.824;4.718;2023-08-20T05:00:42;17.20;99.90
12708;DHT22;6418;50.824;4.718;2023-08-20T05:03:09;17.10;99.90
12708;DHT22;6418;50.824;4.718;2023-08-20T05:05:36;17.10;99.90
12708;DHT22;6418;50.824;4.718;2023-08-20T05:08:04;17.20;99.90
12708;DHT22;6418;50.824;4.718;2023-08-20T05:10:31;17.20;99.90
12708;DHT22;6418;50.824;4.718;2023-08-20T05:12:59;17.20;99.90
12708;DHT22;6418;50.824;4.718;2023-08-20T05:15:26;17.20;99.90
12708;DHT22;6418;50.824;4.718;2023-08-20T05:17:53;17.20;99.90
12708;DHT22;6418;50.824;4.718;2023-08-20T05:20:20;17.10;99.90
12708;DHT22;6418;50.824;4.718;2023-08-20T05:22:47;17.10;99.90
12708;DHT22;6418;50.824;4.718;2023-08-20T05:25:14;17.10;99.90
12708;DHT22;6418;50.824;4.718;2023-08-20T05:27:41;17.10;99.90
12708;DHT22;6418;50.824;4.718;2023-08-20T05:30:10;17.10;99.90
12708;DHT22;6418;50.824;4.718;2023-08-20T05:32:37;17.10;99.90
12708;DHT22;6418;50.824;4.718;2023-08-20T05:35:05;17.10;99.90
12708;DHT22;6418;50.824;4.718;2023-08-20T05:37:32;17.00;99.90
12708;DHT22;6418;50.824;4.718;2023-08-20T05:39:59;17.00;99.90
12708;DHT22;6418;50.824;4.718;2023-08-20T05:42:26;17.10;99.90
12708;DHT22;6418;50.824;4.718;2023-08-20T05:44:53;17.10;99.90
12708;DHT22;6418;50.824;4.718;2023-08-20T05:47:21;17.10;99.90
12708;DHT22;6418;50.824;4.718;2023-08-20T05:49:48;17.10;99.90
12708;DHT22;6418;50.824;4.718;2023-08-20T05:52:15;17.20;99.90
12708;DHT22;6418;50.824;4.718;2023-08-20T05:54:42;17.20;99.90
12708;DHT22;6418;50.824;4.718;2023-08-20T05:57:09;17.20;99.90
12708;DHT22;6418;50.824;4.718;2023-08-20T05:59:36;17.30;99.90
12708;DHT22;6418;50.824;4.718;2023-08-20T06:02:03;17.30;99.90
12708;DHT22;6418;50.824;4.718;2023-08-20T06:04:32;17.30;99.90
12708;DHT22;6418;50.824;4.718;2023-08-20T06:06:59;17.40;99.90
12708;DHT22;6418;50.824;4.718;2023-08-20T06:09:26;17.40;99.90
12708;DHT22;6418;50.824;4.718;2023-08-20T06:11:53;17.40;99.90
12708;DHT22;6418;50.824;4.718;2023-08-20T06:14:19;17.50;99.90
12708;DHT22;6418;50.824;4.718;2023-08-20T06:16:46;17.50;99.90
12708;DHT22;6418;50.824;4.718;2023-08-20T06:19:13;17.60;99.90
12708;DHT22;6418;50.824;4.718;2023-08-20T06:21:42;17.60;99.90
12708;DHT22;6418;50.824;4.718;2023-08-20T06:24:09;17.70;99.90
12708;DHT22;6418;50.824;4.718;2023-08-20T06:26:36;17.70;99.90
12708;DHT22;6418;50.824;4.718;2023-08-20T06:29:03;17.80;99.90
12708;DHT22;6418;50.824;4.718;2023-08-20T06:31:30;17.90;99.90
12708;DHT22;6418;50.824;4.718;2023-08-20T06:33:57;17.90;99.90
12708;DHT22;6418;50.824;4.718;2023-08-20T06:36:24;18.00;99.90
12708;DHT22;6418;50.824;4.718;2023-08-20T06:38:52;18.10;99.90
12708;DHT22;6418;50.824;4.718;2023-08-20T06:41:19;18.10;99.90
12708;DHT22;6418;50.824;4.718;2023-08-20T06:43:46;18.20;99.90
12708;DHT22;6418;50.824;4.718;2023-08-20T06:46:13;18.30;99.90
12708;DHT22;6418;50.824;4.718;2023-08-20T06:48:40;18.30;99.90
12708;DHT22;6418;50.824;4.718;2023-08-20T06:51:13;18.40;99.90
12708;DHT22;6418;50.824;4.718;2023-08-20T06:53:41;18.40;99.90
12708;DHT22;6418;50.824;4.718;2023-08-20T06:56:09;18.50;99.90
12708;DHT22;6418;50.824;4.718;2023-08-20T06:58:37;18.60;99.90
12708;DHT22;6418;50.824;4.718;2023-08-20T07:01:04;18.60;99.90
12708;DHT22;6418;50.824;4.718;2023-08-20T07:03:34;18.70;99.90
12708;DHT22;6418;50.824;4.718;2023-08-20T07:06:01;18.70;99.90
12708;DHT22;6418;50.824;4.718;2023-08-20T07:08:28;18.80;99.90
12708;DHT22;6418;50.824;4.718;2023-08-20T07:10:55;18.80;99.90
12708;DHT22;6418;50.824;4.718;2023-08-20T07:13:24;18.90;99.90
12708;DHT22;6418;50.824;4.718;2023-08-20T07:15:51;19.00;99.90
12708;DHT22;6418;50.824;4.718;2023-08-20T07:18:18;19.00;99.90
12708;DHT22;6418;50.824;4.718;2023-08-20T07:20:45;19.10;99.90
12708;DHT22;6418;50.824;4.718;2023-08-20T07:23:12;19.10;99.90
12708;DHT22;6418;50.824;4.718;2023-08-20T07:25:40;19.20;99.90
12708;DHT22;6418;50.824;4.718;2023-08-20T07:28:08;19.20;99.90
12708;DHT22;6418;50.824;4.718;2023-08-20T07:30:36;19.30;99.90
12708;DHT22;6418;50.824;4.718;2023-08-20T07:33:05;19.30;99.90
12708;DHT22;6418;50.824;4.718;2023-08-20T07:35:32;19.40;99.90
12708;DHT22;6418;50.824;4.718;2023-08-20T07:38:01;19.40;99.90
12708;DHT22;6418;50.824;4.718;2023-08-20T07:40:28;19.50;99.90
12708;DHT22;6418;50.824;4.718;2023-08-20T07:42:55;19.60;99.90
12708;DHT22;6418;50.824;4.718;2023-08-20T07:45:22;19.60;99.90
12708;DHT22;6418;50.824;4.718;2023-08-20T07:47:50;19.70;99.90
12708;DHT22;6418;50.824;4.718;2023-08-20T07:50:17;19.80;99.90
12708;DHT22;6418;50.824;4.718;2023-08-20T07:52:44;19.80;99.90
12708;DHT22;6418;50.824;4.718;2023-08-20T07:55:11;19.90;99.90
12708;DHT22;6418;50.824;4.718;2023-08-20T07:57:38;19.90;99.90
12708;DHT22;6418;50.824;4.718;2023-08-20T08:00:06;20.00;99.90
12708;DHT22;6418;50.824;4.718;2023-08-20T08:02:33;20.00;99.90
12708;DHT22;6418;50.824;4.718;2023-08-20T08:05:02;20.10;99.90
12708;DHT22;6418;50.824;4.718;2023-08-20T08:07:29;20.10;99.90
12708;DHT22;6418;50.824;4.718;2023-08-20T08:09:56;20.20;99.90
12708;DHT22;6418;50.824;4.718;2023-08-20T08:12:23;20.30;99.90
12708;DHT22;6418;50.824;4.718;2023-08-20T08:14:50;20.30;99.90
12708;DHT22;6418;50.824;4.718;2023-08-20T08:17:17;20.30;99.90
12708;DHT22;6418;50.824;4.718;2023-08-20T08:19:44;20.40;99.90
12708;DHT22;6418;50.824;4.718;2023-08-20T08:22:12;20.50;99.90
12708;DHT22;6418;50.824;4.718;2023-08-20T08:24:39;20.50;99.90
12708;DHT22;6418;50.824;4.718;2023-08-20T08:27:07;20.50;99.90
12708;DHT22;6418;50.824;4.718;2023-08-20T08:29:34;20.60;99.90
12708;DHT22;6418;50.824;4.718;2023-08-20T08:32:01;20.60;99.90
12708;DHT22;6418;50.824;4.718;2023-08-20T08:34:29;20.70;99.90
12708;DHT22;6418;50.824;4.718;2023-08-20T08:36:56;20.80;99.90
12708;DHT22;6418;50.824;4.718;2023-08-20T08:39:24;20.90;99.90
12708;DHT22;6418;50.824;4.718;2023-08-20T08:41:52;21.00;99.90
12708;DHT22;6418;50.824;4.718;2023-08-20T08:44:21;21.00;99.90
12708;DHT22;6418;50.824;4.718;2023-08-20T08:46:49;21.00;99.90
12708;DHT22;6418;50.824;4.718;2023-08-20T08:49:17;21.10;99.90
12708;DHT22;6418;50.824;4.718;2023-08-20T08:51:45;21.10;99.90
12708;DHT22;6418;50.824;4.718;2023-08-20T08:54:13;21.20;99.90
12708;DHT22;6418;50.824;4.718;2023-08-20T08:56:43;21.30;99.90
12708;DHT22;6418;50.824;4.718;2023-08-20T08:59:10;21.30;99.90
12708;DHT22;6418;50.824;4.718;2023-08-20T09:01:38;21.30;99.90
12708;DHT22;6418;50.824;4.718;2023-08-20T09:04:05;21.40;99.90
12708;DHT22;6418;50.824;4.718;2023-08-20T09:06:44;21.40;99.90
12708;DHT22;6418;50.824;4.718;2023-08-20T09:09:12;21.40;99.90
12708;DHT22;6418;50.824;4.718;2023-08-20T09:11:39;21.50;99.90
12708;DHT22;6418;50.824;4.718;2023-08-20T09:14:07;21.60;99.90
12708;DHT22;6418;50.824;4.718;2023-08-20T09:16:37;21.60;99.90
12708;DHT22;6418;50.824;4.718;2023-08-20T09:19:04;21.70;99.90
12708;DHT22;6418;50.824;4.718;2023-08-20T09:21:31;21.80;99.90
12708;DHT22;6418;50.824;4.718;2023-08-20T09:24:01;21.80;99.90
12708;DHT22;6418;50.824;4.718;2023-08-20T09:26:29;21.80;99.90
12708;DHT22;6418;50.824;4.718;2023-08-20T09:28:56;21.90;99.90
12708;DHT22;6418;50.824;4.718;2023-08-20T09:31:37;22.00;99.90
12708;DHT22;6418;50.824;4.718;2023-08-20T09:34:04;22.00;99.90
12708;DHT22;6418;50.824;4.718;2023-08-20T09:36:32;22.00;99.90
12708;DHT22;6418;50.824;4.718;2023-08-20T09:39:00;22.10;99.90
12708;DHT22;6418;50.824;4.718;2023-08-20T09:41:28;22.10;99.90
12708;DHT22;6418;50.824;4.718;2023-08-20T09:43:57;22.20;99.90
12708;DHT22;6418;50.824;4.718;2023-08-20T09:46:27;22.20;99.90
12708;DHT22;6418;50.824;4.718;2023-08-20T09:48:56;22.20;99.90
12708;DHT22;6418;50.824;4.718;2023-08-20T09:51:25;22.30;99.90
12708;DHT22;6418;50.824;4.718;2023-08-20T09:53:56;22.30;99.90
12708;DHT22;6418;50.824;4.718;2023-08-20T09:56:28;22.30;99.90
12708;DHT22;6418;50.824;4.718;2023-08-20T10:01:25;22.30;99.90
12708;DHT22;6418;50.824;4.718;2023-08-20T10:03:52;22.30;99.90
12708;DHT22;6418;50.824;4.718;2023-08-20T10:06:20;22.40;99.90
12708;DHT22;6418;50.824;4.718;2023-08-20T10:08:47;22.40;99.90
12708;DHT22;6418;50.824;4.718;2023-08-20T10:11:15;22.40;99.90
12708;DHT22;6418;50.824;4.718;2023-08-20T10:13:42;22.40;99.90
12708;DHT22;6418;50.824;4.718;2023-08-20T10:16:12;22.60;99.90
12708;DHT22;6418;50.824;4.718;2023-08-20T10:18:40;22.60;99.90
12708;DHT22;6418;50.824;4.718;2023-08-20T10:21:08;22.70;99.90
12708;DHT22;6418;50.824;4.718;2023-08-20T10:23:37;22.70;99.90
12708;DHT22;6418;50.824;4.718;2023-08-20T10:26:07;22.80;99.90
12708;DHT22;6418;50.824;4.718;2023-08-20T10:28:35;22.90;99.90
12708;DHT22;6418;50.824;4.718;2023-08-20T10:31:04;22.90;99.90
12708;DHT22;6418;50.824;4.718;2023-08-20T10:33:31;23.00;99.90
12708;DHT22;6418;50.824;4.718;2023-08-20T10:36:07;23.00;99.90
12708;DHT22;6418;50.824;4.718;2023-08-20T10:38:36;23.00;99.90
12708;DHT22;6418;50.824;4.718;2023-08-20T10:41:06;23.00;99.90
12708;DHT22;6418;50.824;4.718;2023-08-20T10:43:34;23.10;99.90
12708;DHT22;6418;50.824;4.718;2023-08-20T10:46:13;23.10;99.90
12708;DHT22;6418;50.824;4.718;2023-08-20T10:48:41;23.10;99.90
12708;DHT22;6418;50.824;4.718;2023-08-20T10:51:11;23.20;99.90
12708;DHT22;6418;50.824;4.718;2023-08-20T10:53:40;23.20;99.90
12708;DHT22;6418;50.824;4.718;2023-08-20T10:56:12;23.30;99.90
12708;DHT22;6418;50.824;4.718;2023-08-20T10:58:46;23.30;99.90
12708;DHT22;6418;50.824;4.718;2023-08-20T11:01:20;23.40;99.90
12708;DHT22;6418;50.824;4.718;2023-08-20T11:03:49;23.50;99.90
12708;DHT22;6418;50.824;4.718;2023-08-20T11:06:18;23.50;99.90
12708;DHT22;6418;50.824;4.718;2023-08-20T11:08:45;23.50;99.90
12708;DHT22;6418;50.824;4.718;2023-08-20T11:11:13;23.60;99.90
12708;DHT22;6418;50.824;4.718;2023-08-20T11:13:40;23.60;99.90
12708;DHT22;6418;50.824;4.718;2023-08-20T11:16:08;23.70;99.90
12708;DHT22;6418;50.824;4.718;2023-08-20T11:18:36;23.70;99.90
12708;DHT22;6418;50.824;4.718;2023-08-20T11:21:03;23.80;99.90
12708;DHT22;6418;50.824;4.718;2023-08-20T11:23:32;23.90;99.90
12708;DHT22;6418;50.824;4.718;2023-08-20T11:25:59;23.90;99.90
12708;DHT22;6418;50.824;4.718;2023-08-20T11:28:27;24.00;99.90
12708;DHT22;6418;50.824;4.718;2023-08-20T11:30:54;24.10;99.90
12708;DHT22;6418;50.824;4.718;2023-08-20T11:33:22;24.20;99.90
12708;DHT22;6418;50.824;4.718;2023-08-20T11:35:50;24.20;99.90
12708;DHT22;6418;50.824;4.718;2023-08-20T11:38:18;24.30;99.90
12708;DHT22;6418;50.824;4.718;2023-08-20T11:40:48;24.30;99.90
12708;DHT22;6418;50.824;4.718;2023-08-20T11:43:15;24.40;99.90
12708;DHT22;6418;50.824;4.718;2023-08-20T11:45:46;24.40;99.90
12708;DHT22;6418;50.824;4.718;2023-08-20T11:48:14;24.50;99.90
12708;DHT22;6418;50.824;4.718;2023-08-20T11:50:41;24.50;99.90
12708;DHT22;6418;50.824;4.718;2023-08-20T11:53:09;24.50;99.90
12708;DHT22;6418;50.824;4.718;2023-08-20T11:55:38;24.50;99.90
12708;DHT22;6418;50.824;4.718;2023-08-20T11:58:09;24.60;99.90
12708;DHT22;6418;50.824;4.718;2023-08-20T12:00:36;24.70;99.90
12708;DHT22;6418;50.824;4.718;2023-08-20T12:03:04;24.70;99.90
12708;DHT22;6418;50.824;4.718;2023-08-20T12:05:31;24.80;99.90
12708;DHT22;6418;50.824;4.718;2023-08-20T12:07:59;24.80;99.90
12708;DHT22;6418;50.824;4.718;2023-08-20T12:10:28;24.90;99.90
12708;DHT22;6418;50.824;4.718;2023-08-20T12:12:56;24.90;99.90
12708;DHT22;6418;50.824;4.718;2023-08-20T12:15:25;25.20;99.90
12708;DHT22;6418;50.824;4.718;2023-08-20T12:18:00;25.20;99.90
12708;DHT22;6418;50.824;4.718;2023-08-20T12:20:28;25.30;99.90
12708;DHT22;6418;50.824;4.718;2023-08-20T12:22:58;25.50;99.90
12708;DHT22;6418;50.824;4.718;2023-08-20T12:25:26;25.50;99.90
12708;DHT22;6418;50.824;4.718;2023-08-20T12:27:53;25.60;99.90
12708;DHT22;6418;50.824;4.718;2023-08-20T12:30:20;25.70;99.90
12708;DHT22;6418;50.824;4.718;2023-08-20T12:32:48;25.70;99.90
12708;DHT22;6418;50.824;4.718;2023-08-20T12:35:15;25.70;99.90
12708;DHT22;6418;50.824;4.718;2023-08-20T12:37:42;25.70;99.90
12708;DHT22;6418;50.824;4.718;2023-08-20T12:40:10;25.80;99.90
12708;DHT22;6418;50.824;4.718;2023-08-20T12:42:38;25.80;99.90
12708;DHT22;6418;50.824;4.718;2023-08-20T12:45:06;25.80;99.90
12708;DHT22;6418;50.824;4.718;2023-08-20T12:47:34;25.80;99.90
12708;DHT22;6418;50.824;4.718;2023-08-20T12:50:02;25.90;99.90
12708;DHT22;6418;50.824;4.718;2023-08-20T12:52:30;25.90;99.90
12708;DHT22;6418;50.824;4.718;2023-08-20T12:54:57;26.00;99.90
12708;DHT22;6418;50.824;4.718;2023-08-20T12:57:24;26.00;99.90
12708;DHT22;6418;50.824;4.718;2023-08-20T12:59:51;26.20;99.90
12708;DHT22;6418;50.824;4.718;2023-08-20T13:02:18;26.20;99.90
12708;DHT22;6418;50.824;4.718;2023-08-20T13:04:46;26.30;99.90
12708;DHT22;6418;50.824;4.718;2023-08-20T13:07:16;26.40;99.90
12708;DHT22;6418;50.824;4.718;2023-08-20T13:09:43;26.60;99.90
12708;DHT22;6418;50.824;4.718;2023-08-20T13:12:11;26.70;99.90
12708;DHT22;6418;50.824;4.718;2023-08-20T13:14:40;26.70;99.90
12708;DHT22;6418;50.824;4.718;2023-08-20T13:17:08;26.90;99.90
12708;DHT22;6418;50.824;4.718;2023-08-20T13:19:36;27.00;99.90
12708;DHT22;6418;50.824;4.718;2023-08-20T13:22:03;27.10;99.90
12708;DHT22;6418;50.824;4.718;2023-08-20T13:24:31;27.30;99.90
12708;DHT22;6418;50.824;4.718;2023-08-20T13:26:58;27.40;99.90
12708;DHT22;6418;50.824;4.718;2023-08-20T13:29:25;27.60;99.90
12708;DHT22;6418;50.824;4.718;2023-08-20T13:31:52;27.70;99.90
12708;DHT22;6418;50.824;4.718;2023-08-20T13:34:19;27.80;99.90
12708;DHT22;6418;50.824;4.718;2023-08-20T13:36:46;27.90;99.90
12708;DHT22;6418;50.824;4.718;2023-08-20T13:39:13;27.90;99.90
12708;DHT22;6418;50.824;4.718;2023-08-20T13:41:42;28.00;99.90
12708;DHT22;6418;50.824;4.718;2023-08-20T13:44:09;28.00;99.90
12708;DHT22;6418;50.824;4.718;2023-08-20T13:46:36;28.10;99.90
12708;DHT22;6418;50.824;4.718;2023-08-20T13:49:03;28.20;99.90
12708;DHT22;6418;50.824;4.718;2023-08-20T13:51:30;28.20;99.90
12708;DHT22;6418;50.824;4.718;2023-08-20T13:53:57;28.30;99.90
12708;DHT22;6418;50.824;4.718;2023-08-20T13:56:24;28.30;99.90
12708;DHT22;6418;50.824;4.718;2023-08-20T13:58:53;28.30;99.90
12708;DHT22;6418;50.824;4.718;2023-08-20T14:01:20;28.40;99.90
12708;DHT22;6418;50.824;4.718;2023-08-20T14:03:47;28.40;99.90
12708;DHT22;6418;50.824;4.718;2023-08-20T14:06:15;28.40;99.90
12708;DHT22;6418;50.824;4.718;2023-08-20T14:08:43;28.40;99.90
12708;DHT22;6418;50.824;4.718;2023-08-20T14:11:10;28.40;99.90
12708;DHT22;6418;50.824;4.718;2023-08-20T14:13:37;28.40;99.90
12708;DHT22;6418;50.824;4.718;2023-08-20T14:16:05;28.30;99.90
12708;DHT22;6418;50.824;4.718;2023-08-20T14:18:32;28.40;99.90
12708;DHT22;6418;50.824;4.718;2023-08-20T14:20:59;28.40;99.90
12708;DHT22;6418;50.824;4.718;2023-08-20T14:23:26;28.50;99.90
12708;DHT22;6418;50.824;4.718;2023-08-20T14:25:55;28.60;99.90
12708;DHT22;6418;50.824;4.718;2023-08-20T14:28:22;28.60;99.90
12708;DHT22;6418;50.824;4.718;2023-08-20T14:30:50;28.60;99.90
12708;DHT22;6418;50.824;4.718;2023-08-20T14:33:21;28.70;99.90
12708;DHT22;6418;50.824;4.718;2023-08-20T14:35:48;28.60;99.90
12708;DHT22;6418;50.824;4.718;2023-08-20T14:38:15;28.70;99.90
12708;DHT22;6418;50.824;4.718;2023-08-20T14:40:42;28.70;99.90
12708;DHT22;6418;50.824;4.718;2023-08-20T14:43:09;28.80;99.90
12708;DHT22;6418;50.824;4.718;2023-08-20T14:45:36;28.80;99.90
12708;DHT22;6418;50.824;4.718;2023-08-20T14:48:03;29.00;99.90
12708;DHT22;6418;50.824;4.718;2023-08-20T14:50:31;29.30;99.90
12708;DHT22;6418;50.824;4.718;2023-08-20T14:52:58;29.70;99.90
12708;DHT22;6418;50.824;4.718;2023-08-20T14:55:25;30.10;99.90
12708;DHT22;6418;50.824;4.718;2023-08-20T14:57:52;30.60;99.90
12708;DHT22;6418;50.824;4.718;2023-08-20T15:00:19;31.00;99.90
12708;DHT22;6418;50.824;4.718;2023-08-20T15:02:48;31.30;99.90
12708;DHT22;6418;50.824;4.718;2023-08-20T15:05:15;31.60;99.90
12708;DHT22;6418;50.824;4.718;2023-08-20T15:07:43;32.10;99.90
12708;DHT22;6418;50.824;4.718;2023-08-20T15:10:10;32.50;99.90
12708;DHT22;6418;50.824;4.718;2023-08-20T15:12:37;32.90;99.90
12708;DHT22;6418;50.824;4.718;2023-08-20T15:15:05;33.40;99.90
12708;DHT22;6418;50.824;4.718;2023-08-20T15:17:34;33.80;99.90
12708;DHT22;6418;50.824;4.718;2023-08-20T15:20:02;34.10;99.90
12708;DHT22;6418;50.824;4.718;2023-08-20T15:22:30;34.50;99.90
12708;DHT22;6418;50.824;4.718;2023-08-20T15:24:58;34.70;99.90
12708;DHT22;6418;50.824;4.718;2023-08-20T15:27:25;34.80;99.90
12708;DHT22;6418;50.824;4.718;2023-08-20T15:29:53;34.90;99.90
12708;DHT22;6418;50.824;4.718;2023-08-20T15:32:20;35.00;99.90
12708;DHT22;6418;50.824;4.718;2023-08-20T15:34:47;35.20;99.90
12708;DHT22;6418;50.824;4.718;2023-08-20T15:37:14;35.50;99.90
12708;DHT22;6418;50.824;4.718;2023-08-20T15:39:42;35.80;99.90
12708;DHT22;6418;50.824;4.718;2023-08-20T15:42:10;35.80;99.90
12708;DHT22;6418;50.824;4.718;2023-08-20T15:44:38;35.70;99.90
12708;DHT22;6418;50.824;4.718;2023-08-20T15:47:05;35.60;99.90
12708;DHT22;6418;50.824;4.718;2023-08-20T15:49:32;35.40;99.90
12708;DHT22;6418;50.824;4.718;2023-08-20T15:51:59;35.30;99.90